sensor_id;sensor_type;location;lat;lon;timestamp;P1;durP1;ratioP1;P2;durP2;ratioP2
25667;SDS011;18003;-33.830;151.202;2023-03-23T00:01:53;6.50;;;3.40;;
25667;SDS011;18003;-33.830;151.202;2023-03-23T00:04:23;7.60;;;3.10;;
25667;SDS011;18003;-33.830;151.202;2023-03-23T00:06:54;6.33;;;3.70;;
25667;SDS011;18003;-33.830;151.202;2023-03-23T00:09:24;6.40;;;3.22;;
25667;SDS011;18003;-33.830;151.202;2023-03-23T00:11:54;7.85;;;3.47;;
25667;SDS011;18003;-33.830;151.202;2023-03-23T00:14:25;5.17;;;3.45;;
25667;SDS011;18003;-33.830;151.202;2023-03-23T00:16:55;7.30;;;3.75;;
25667;SDS011;18003;-33.830;151.202;2023-03-23T00:19:26;5.33;;;3.58;;
25667;SDS011;18003;-33.830;151.202;2023-03-23T00:21:56;6.50;;;3.30;;
25667;SDS011;18003;-33.830;151.202;2023-03-23T00:24:27;5.75;;;3.92;;
25667;SDS011;18003;-33.830;151.202;2023-03-23T00:26:57;6.22;;;4.53;;
25667;SDS011;18003;-33.830;151.202;2023-03-23T00:29:27;9.63;;;4.22;;
25667;SDS011;18003;-33.830;151.202;2023-03-23T00:31:58;7.20;;;4.30;;
25667;SDS011;18003;-33.830;151.202;2023-03-23T00:34:28;5.47;;;4.10;;
25667;SDS011;18003;-33.830;151.202;2023-03-23T00:36:59;6.62;;;4.58;;
25667;SDS011;18003;-33.830;151.202;2023-03-23T00:39:29;8.50;;;4.67;;
25667;SDS011;18003;-33.830;151.202;2023-03-23T00:41:59;6.70;;;5.15;;
25667;SDS011;18003;-33.830;151.202;2023-03-23T00:44:32;11.33;;;5.97;;
25667;SDS011;18003;-33.830;151.202;2023-03-23T00:47:03;10.98;;;5.80;;
25667;SDS011;18003;-33.830;151.202;2023-03-23T00:49:34;10.10;;;6.30;;
25667;SDS011;18003;-33.830;151.202;2023-03-23T00:52:05;10.10;;;6.33;;
25667;SDS011;18003;-33.830;151.202;2023-03-23T00:54:35;8.93;;;5.85;;
25667;SDS011;18003;-33.830;151.202;2023-03-23T00:57:05;10.35;;;6.08;;
25667;SDS011;18003;-33.830;151.202;2023-03-23T00:59:36;10.20;;;6.20;;
25667;SDS011;18003;-33.830;151.202;2023-03-23T01:02:06;12.23;;;6.03;;
25667;SDS011;18003;-33.830;151.202;2023-03-23T01:04:37;10.68;;;6.12;;
25667;SDS011;18003;-33.830;151.202;2023-03-23T01:07:08;9.45;;;6.40;;
25667;SDS011;18003;-33.830;151.202;2023-03-23T01:09:39;14.07;;;7.10;;
25667;SDS011;18003;-33.830;151.202;2023-03-23T01:14:39;12.78;;;6.80;;
25667;SDS011;18003;-33.830;151.202;2023-03-23T01:17:09;11.63;;;6.70;;
25667;SDS011;18003;-33.830;151.202;2023-03-23T01:19:39;10.63;;;6.72;;
25667;SDS011;18003;-33.830;151.202;2023-03-23T01:22:10;9.98;;;6.45;;
25667;SDS011;18003;-33.830;151.202;2023-03-23T01:24:40;13.68;;;6.92;;
25667;SDS011;18003;-33.830;151.202;2023-03-23T01:27:10;12.95;;;7.62;;
25667;SDS011;18003;-33.830;151.202;2023-03-23T01:29:40;11.12;;;7.05;;
25667;SDS011;18003;-33.830;151.202;2023-03-23T01:32:10;11.40;;;7.30;;
25667;SDS011;18003;-33.830;151.202;2023-03-23T01:34:40;15.10;;;7.40;;
25667;SDS011;18003;-33.830;151.202;2023-03-23T01:37:10;11.75;;;6.87;;
25667;SDS011;18003;-33.830;151.202;2023-03-23T01:39:41;10.85;;;7.25;;
25667;SDS011;18003;-33.830;151.202;2023-03-23T01:42:11;12.13;;;7.15;;
25667;SDS011;18003;-33.830;151.202;2023-03-23T01:47:17;10.55;;;6.83;;
25667;SDS011;18003;-33.830;151.202;2023-03-23T01:49:50;10.78;;;6.87;;
25667;SDS011;18003;-33.830;151.202;2023-03-23T01:52:22;10.47;;;7.00;;
25667;SDS011;18003;-33.830;151.202;2023-03-23T01:54:52;9.33;;;6.70;;
25667;SDS011;18003;-33.830;151.202;2023-03-23T01:59:56;12.88;;;6.58;;
25667;SDS011;18003;-33.830;151.202;2023-03-23T02:02:29;10.00;;;6.22;;
25667;SDS011;18003;-33.830;151.202;2023-03-23T02:05:00;9.63;;;5.87;;
25667;SDS011;18003;-33.830;151.202;2023-03-23T02:07:32;8.75;;;5.65;;
25667;SDS011;18003;-33.830;151.202;2023-03-23T02:10:02;7.55;;;5.72;;
25667;SDS011;18003;-33.830;151.202;2023-03-23T02:12:33;8.35;;;5.92;;
25667;SDS011;18003;-33.830;151.202;2023-03-23T02:15:03;8.50;;;6.28;;
25667;SDS011;18003;-33.830;151.202;2023-03-23T02:17:39;11.75;;;6.40;;
25667;SDS011;18003;-33.830;151.202;2023-03-23T02:34:04;9.18;;;5.65;;
25667;SDS011;18003;-33.830;151.202;2023-03-23T02:36:40;8.60;;;5.60;;
25667;SDS011;18003;-33.830;151.202;2023-03-23T02:39:12;6.28;;;5.67;;
25667;SDS011;18003;-33.830;151.202;2023-03-23T02:42:08;6.70;;;5.83;;
25667;SDS011;18003;-33.830;151.202;2023-03-23T02:44:36;8.23;;;5.90;;
25667;SDS011;18003;-33.830;151.202;2023-03-23T02:47:08;8.98;;;5.65;;
25667;SDS011;18003;-33.830;151.202;2023-03-23T02:49:39;6.25;;;5.58;;
25667;SDS011;18003;-33.830;151.202;2023-03-23T02:52:11;7.33;;;5.55;;
25667;SDS011;18003;-33.830;151.202;2023-03-23T02:54:42;9.08;;;5.72;;
25667;SDS011;18003;-33.830;151.202;2023-03-23T02:57:14;8.60;;;5.53;;
25667;SDS011;18003;-33.830;151.202;2023-03-23T02:59:45;6.57;;;5.67;;
25667;SDS011;18003;-33.830;151.202;2023-03-23T03:02:21;6.60;;;5.28;;
25667;SDS011;18003;-33.830;151.202;2023-03-23T03:04:54;9.30;;;6.00;;
25667;SDS011;18003;-33.830;151.202;2023-03-23T03:07:42;6.55;;;5.22;;
25667;SDS011;18003;-33.830;151.202;2023-03-23T03:12:53;7.67;;;5.75;;
25667;SDS011;18003;-33.830;151.202;2023-03-23T03:15:43;9.03;;;5.60;;
25667;SDS011;18003;-33.830;151.202;2023-03-23T03:18:30;8.20;;;5.87;;
25667;SDS011;18003;-33.830;151.202;2023-03-23T03:21:09;9.75;;;6.00;;
25667;SDS011;18003;-33.830;151.202;2023-03-23T03:23:42;9.78;;;5.97;;
25667;SDS011;18003;-33.830;151.202;2023-03-23T03:26:15;8.68;;;5.58;;
25667;SDS011;18003;-33.830;151.202;2023-03-23T03:28:47;8.25;;;5.22;;
25667;SDS011;18003;-33.830;151.202;2023-03-23T03:31:18;8.00;;;5.47;;
25667;SDS011;18003;-33.830;151.202;2023-03-23T03:33:49;7.92;;;5.30;;
25667;SDS011;18003;-33.830;151.202;2023-03-23T03:36:20;7.80;;;6.28;;
25667;SDS011;18003;-33.830;151.202;2023-03-23T03:38:52;6.50;;;5.80;;
25667;SDS011;18003;-33.830;151.202;2023-03-23T03:41:23;6.20;;;5.30;;
25667;SDS011;18003;-33.830;151.202;2023-03-23T03:43:53;5.95;;;5.35;;
25667;SDS011;18003;-33.830;151.202;2023-03-23T03:46:23;5.80;;;5.28;;
25667;SDS011;18003;-33.830;151.202;2023-03-23T03:48:54;9.05;;;5.72;;
25667;SDS011;18003;-33.830;151.202;2023-03-23T03:51:24;7.00;;;5.00;;
25667;SDS011;18003;-33.830;151.202;2023-03-23T03:53:55;6.70;;;4.90;;
25667;SDS011;18003;-33.830;151.202;2023-03-23T03:56:25;5.75;;;4.55;;
25667;SDS011;18003;-33.830;151.202;2023-03-23T03:58:55;5.67;;;4.92;;
25667;SDS011;18003;-33.830;151.202;2023-03-23T04:01:26;5.60;;;4.47;;
25667;SDS011;18003;-33.830;151.202;2023-03-23T04:03:56;6.08;;;4.62;;
25667;SDS011;18003;-33.830;151.202;2023-03-23T04:06:26;5.62;;;5.12;;
25667;SDS011;18003;-33.830;151.202;2023-03-23T04:08:56;6.30;;;5.30;;
25667;SDS011;18003;-33.830;151.202;2023-03-23T04:11:27;8.83;;;5.33;;
25667;SDS011;18003;-33.830;151.202;2023-03-23T04:13:58;8.50;;;5.03;;
25667;SDS011;18003;-33.830;151.202;2023-03-23T04:16:27;7.00;;;4.50;;
25667;SDS011;18003;-33.830;151.202;2023-03-23T04:18:57;5.67;;;4.40;;
25667;SDS011;18003;-33.830;151.202;2023-03-23T04:21:28;8.85;;;5.47;;
25667;SDS011;18003;-33.830;151.202;2023-03-23T04:23:58;8.95;;;5.58;;
25667;SDS011;18003;-33.830;151.202;2023-03-23T04:26:29;7.58;;;5.85;;
25667;SDS011;18003;-33.830;151.202;2023-03-23T04:28:59;9.00;;;5.00;;
25667;SDS011;18003;-33.830;151.202;2023-03-23T04:31:30;7.45;;;5.00;;
25667;SDS011;18003;-33.830;151.202;2023-03-23T04:34:01;7.10;;;5.25;;
25667;SDS011;18003;-33.830;151.202;2023-03-23T04:36:31;8.58;;;5.33;;
25667;SDS011;18003;-33.830;151.202;2023-03-23T04:39:01;8.58;;;5.20;;
25667;SDS011;18003;-33.830;151.202;2023-03-23T04:41:32;8.00;;;5.40;;
25667;SDS011;18003;-33.830;151.202;2023-03-23T04:44:02;10.78;;;5.50;;
25667;SDS011;18003;-33.830;151.202;2023-03-23T04:46:32;10.55;;;5.50;;
25667;SDS011;18003;-33.830;151.202;2023-03-23T04:49:02;10.25;;;5.42;;
25667;SDS011;18003;-33.830;151.202;2023-03-23T04:51:32;9.43;;;5.70;;
25667;SDS011;18003;-33.830;151.202;2023-03-23T04:54:02;6.25;;;4.70;;
25667;SDS011;18003;-33.830;151.202;2023-03-23T04:56:32;6.75;;;4.80;;
25667;SDS011;18003;-33.830;151.202;2023-03-23T04:59:03;7.00;;;5.20;;
25667;SDS011;18003;-33.830;151.202;2023-03-23T05:01:33;7.30;;;5.03;;
25667;SDS011;18003;-33.830;151.202;2023-03-23T05:04:04;7.35;;;5.40;;
25667;SDS011;18003;-33.830;151.202;2023-03-23T05:06:34;8.70;;;5.28;;
25667;SDS011;18003;-33.830;151.202;2023-03-23T05:09:04;7.58;;;5.08;;
25667;SDS011;18003;-33.830;151.202;2023-03-23T05:11:34;8.00;;;4.85;;
25667;SDS011;18003;-33.830;151.202;2023-03-23T05:14:13;6.83;;;4.75;;
25667;SDS011;18003;-33.830;151.202;2023-03-23T05:16:41;7.10;;;4.92;;
25667;SDS011;18003;-33.830;151.202;2023-03-23T05:19:13;7.70;;;4.65;;
25667;SDS011;18003;-33.830;151.202;2023-03-23T05:21:43;6.10;;;4.67;;
25667;SDS011;18003;-33.830;151.202;2023-03-23T05:24:16;6.47;;;4.10;;
25667;SDS011;18003;-33.830;151.202;2023-03-23T05:26:46;8.38;;;5.10;;
25667;SDS011;18003;-33.830;151.202;2023-03-23T05:29:18;6.92;;;4.35;;
25667;SDS011;18003;-33.830;151.202;2023-03-23T05:31:49;5.78;;;4.40;;
25667;SDS011;18003;-33.830;151.202;2023-03-23T05:34:20;6.22;;;4.65;;
25667;SDS011;18003;-33.830;151.202;2023-03-23T05:36:50;7.70;;;4.40;;
25667;SDS011;18003;-33.830;151.202;2023-03-23T05:39:21;4.95;;;4.25;;
25667;SDS011;18003;-33.830;151.202;2023-03-23T05:41:52;8.30;;;4.55;;
25667;SDS011;18003;-33.830;151.202;2023-03-23T05:44:22;11.78;;;4.80;;
25667;SDS011;18003;-33.830;151.202;2023-03-23T05:46:53;6.20;;;4.70;;
25667;SDS011;18003;-33.830;151.202;2023-03-23T05:49:23;9.30;;;4.37;;
25667;SDS011;18003;-33.830;151.202;2023-03-23T05:51:53;7.75;;;4.50;;
25667;SDS011;18003;-33.830;151.202;2023-03-23T05:54:23;5.78;;;4.05;;
25667;SDS011;18003;-33.830;151.202;2023-03-23T05:56:53;5.40;;;4.17;;
25667;SDS011;18003;-33.830;151.202;2023-03-23T05:59:23;5.78;;;4.10;;
25667;SDS011;18003;-33.830;151.202;2023-03-23T06:01:53;6.37;;;4.42;;
25667;SDS011;18003;-33.830;151.202;2023-03-23T06:04:24;8.23;;;4.33;;
25667;SDS011;18003;-33.830;151.202;2023-03-23T06:06:54;6.30;;;3.20;;
25667;SDS011;18003;-33.830;151.202;2023-03-23T06:09:24;7.12;;;3.60;;
25667;SDS011;18003;-33.830;151.202;2023-03-23T06:11:54;5.17;;;3.05;;
25667;SDS011;18003;-33.830;151.202;2023-03-23T06:14:24;3.72;;;2.80;;
25667;SDS011;18003;-33.830;151.202;2023-03-23T06:16:54;3.72;;;2.98;;
25667;SDS011;18003;-33.830;151.202;2023-03-23T06:19:24;3.08;;;2.77;;
25667;SDS011;18003;-33.830;151.202;2023-03-23T06:21:56;2.60;;;2.37;;
25667;SDS011;18003;-33.830;151.202;2023-03-23T06:24:28;3.10;;;2.15;;
25667;SDS011;18003;-33.830;151.202;2023-03-23T06:26:59;2.30;;;2.10;;
25667;SDS011;18003;-33.830;151.202;2023-03-23T06:29:29;3.65;;;2.20;;
25667;SDS011;18003;-33.830;151.202;2023-03-23T06:32:00;3.17;;;2.47;;
25667;SDS011;18003;-33.830;151.202;2023-03-23T06:34:31;8.85;;;2.67;;
25667;SDS011;18003;-33.830;151.202;2023-03-23T06:37:02;8.95;;;2.92;;
25667;SDS011;18003;-33.830;151.202;2023-03-23T06:39:41;4.30;;;2.50;;
25667;SDS011;18003;-33.830;151.202;2023-03-23T06:42:16;5.47;;;2.30;;
25667;SDS011;18003;-33.830;151.202;2023-03-23T06:44:41;3.30;;;2.10;;
25667;SDS011;18003;-33.830;151.202;2023-03-23T06:47:14;4.12;;;2.65;;
25667;SDS011;18003;-33.830;151.202;2023-03-23T06:49:43;4.47;;;2.35;;
25667;SDS011;18003;-33.830;151.202;2023-03-23T06:52:13;2.67;;;2.40;;
25667;SDS011;18003;-33.830;151.202;2023-03-23T06:54:44;5.92;;;2.67;;
25667;SDS011;18003;-33.830;151.202;2023-03-23T06:57:14;2.92;;;2.50;;
25667;SDS011;18003;-33.830;151.202;2023-03-23T06:59:44;4.62;;;2.70;;
25667;SDS011;18003;-33.830;151.202;2023-03-23T07:02:14;4.90;;;2.80;;
25667;SDS011;18003;-33.830;151.202;2023-03-23T07:04:44;3.75;;;2.50;;
25667;SDS011;18003;-33.830;151.202;2023-03-23T07:07:14;4.90;;;2.52;;
25667;SDS011;18003;-33.830;151.202;2023-03-23T07:09:45;3.67;;;2.20;;
25667;SDS011;18003;-33.830;151.202;2023-03-23T07:12:15;3.35;;;2.20;;
25667;SDS011;18003;-33.830;151.202;2023-03-23T07:14:45;4.97;;;2.50;;
25667;SDS011;18003;-33.830;151.202;2023-03-23T07:17:15;5.15;;;2.33;;
25667;SDS011;18003;-33.830;151.202;2023-03-23T07:19:45;4.17;;;2.22;;
25667;SDS011;18003;-33.830;151.202;2023-03-23T07:22:15;5.35;;;2.70;;
25667;SDS011;18003;-33.830;151.202;2023-03-23T07:24:45;5.28;;;2.45;;
25667;SDS011;18003;-33.830;151.202;2023-03-23T07:27:15;9.13;;;2.65;;
25667;SDS011;18003;-33.830;151.202;2023-03-23T07:29:45;5.78;;;2.40;;
25667;SDS011;18003;-33.830;151.202;2023-03-23T07:32:15;3.65;;;2.30;;
25667;SDS011;18003;-33.830;151.202;2023-03-23T07:34:46;5.42;;;2.35;;
25667;SDS011;18003;-33.830;151.202;2023-03-23T07:37:16;4.05;;;2.42;;
25667;SDS011;18003;-33.830;151.202;2023-03-23T07:39:46;5.92;;;2.90;;
25667;SDS011;18003;-33.830;151.202;2023-03-23T07:42:16;7.70;;;2.90;;
25667;SDS011;18003;-33.830;151.202;2023-03-23T07:44:46;4.70;;;2.70;;
25667;SDS011;18003;-33.830;151.202;2023-03-23T07:47:16;5.00;;;2.58;;
25667;SDS011;18003;-33.830;151.202;2023-03-23T07:49:46;6.17;;;2.47;;
25667;SDS011;18003;-33.830;151.202;2023-03-23T07:52:16;11.65;;;3.00;;
25667;SDS011;18003;-33.830;151.202;2023-03-23T07:54:47;4.85;;;2.70;;
25667;SDS011;18003;-33.830;151.202;2023-03-23T07:57:16;5.03;;;2.70;;
25667;SDS011;18003;-33.830;151.202;2023-03-23T07:59:46;6.42;;;2.50;;
25667;SDS011;18003;-33.830;151.202;2023-03-23T08:02:17;4.08;;;2.67;;
25667;SDS011;18003;-33.830;151.202;2023-03-23T08:04:47;6.22;;;2.80;;
25667;SDS011;18003;-33.830;151.202;2023-03-23T08:07:17;3.90;;;2.60;;
25667;SDS011;18003;-33.830;151.202;2023-03-23T08:09:47;3.90;;;2.83;;
25667;SDS011;18003;-33.830;151.202;2023-03-23T08:12:17;4.47;;;2.55;;
25667;SDS011;18003;-33.830;151.202;2023-03-23T08:14:47;3.80;;;2.67;;
25667;SDS011;18003;-33.830;151.202;2023-03-23T08:17:18;4.53;;;2.70;;
25667;SDS011;18003;-33.830;151.202;2023-03-23T08:19:48;5.97;;;2.90;;
25667;SDS011;18003;-33.830;151.202;2023-03-23T08:22:18;4.12;;;2.87;;
25667;SDS011;18003;-33.830;151.202;2023-03-23T08:24:48;5.60;;;2.95;;
25667;SDS011;18003;-33.830;151.202;2023-03-23T08:27:19;5.08;;;2.70;;
25667;SDS011;18003;-33.830;151.202;2023-03-23T08:29:49;4.62;;;2.95;;
25667;SDS011;18003;-33.830;151.202;2023-03-23T08:32:19;5.85;;;2.95;;
25667;SDS011;18003;-33.830;151.202;2023-03-23T08:34:49;4.83;;;2.58;;
25667;SDS011;18003;-33.830;151.202;2023-03-23T08:37:19;3.37;;;2.65;;
25667;SDS011;18003;-33.830;151.202;2023-03-23T08:39:53;5.37;;;2.67;;
25667;SDS011;18003;-33.830;151.202;2023-03-23T08:42:24;6.47;;;2.70;;
25667;SDS011;18003;-33.830;151.202;2023-03-23T08:44:54;7.30;;;2.90;;
25667;SDS011;18003;-33.830;151.202;2023-03-23T08:47:24;4.37;;;2.92;;
25667;SDS011;18003;-33.830;151.202;2023-03-23T08:49:54;5.78;;;2.42;;
25667;SDS011;18003;-33.830;151.202;2023-03-23T08:52:24;4.00;;;2.80;;
25667;SDS011;18003;-33.830;151.202;2023-03-23T08:54:55;3.80;;;2.70;;
25667;SDS011;18003;-33.830;151.202;2023-03-23T08:57:25;4.17;;;2.77;;
25667;SDS011;18003;-33.830;151.202;2023-03-23T08:59:55;4.17;;;3.00;;
25667;SDS011;18003;-33.830;151.202;2023-03-23T09:02:27;3.45;;;2.80;;
25667;SDS011;18003;-33.830;151.202;2023-03-23T09:04:58;4.55;;;2.75;;
25667;SDS011;18003;-33.830;151.202;2023-03-23T09:07:28;4.72;;;2.60;;
25667;SDS011;18003;-33.830;151.202;2023-03-23T09:09:58;3.77;;;2.70;;
25667;SDS011;18003;-33.830;151.202;2023-03-23T09:12:28;3.53;;;2.80;;
25667;SDS011;18003;-33.830;151.202;2023-03-23T09:14:59;2.98;;;2.45;;
25667;SDS011;18003;-33.830;151.202;2023-03-23T09:17:30;3.52;;;2.27;;
25667;SDS011;18003;-33.830;151.202;2023-03-23T09:20:00;4.90;;;2.33;;
25667;SDS011;18003;-33.830;151.202;2023-03-23T09:22:31;2.83;;;2.12;;
25667;SDS011;18003;-33.830;151.202;2023-03-23T09:25:01;3.15;;;2.00;;
25667;SDS011;18003;-33.830;151.202;2023-03-23T09:27:31;2.98;;;2.15;;
25667;SDS011;18003;-33.830;151.202;2023-03-23T09:30:09;2.87;;;2.27;;
25667;SDS011;18003;-33.830;151.202;2023-03-23T09:32:41;4.83;;;1.80;;
25667;SDS011;18003;-33.830;151.202;2023-03-23T09:35:11;4.05;;;2.20;;
25667;SDS011;18003;-33.830;151.202;2023-03-23T09:37:41;3.92;;;2.15;;
25667;SDS011;18003;-33.830;151.202;2023-03-23T09:40:15;3.37;;;1.90;;
25667;SDS011;18003;-33.830;151.202;2023-03-23T09:42:49;3.42;;;2.20;;
25667;SDS011;18003;-33.830;151.202;2023-03-23T09:48:03;2.67;;;2.05;;
25667;SDS011;18003;-33.830;151.202;2023-03-23T09:50:34;2.50;;;2.10;;
25667;SDS011;18003;-33.830;151.202;2023-03-23T09:53:12;3.52;;;2.00;;
25667;SDS011;18003;-33.830;151.202;2023-03-23T09:55:38;2.05;;;1.70;;
25667;SDS011;18003;-33.830;151.202;2023-03-23T09:58:18;3.95;;;2.33;;
25667;SDS011;18003;-33.830;151.202;2023-03-23T10:01:06;2.25;;;1.82;;
25667;SDS011;18003;-33.830;151.202;2023-03-23T10:03:39;2.87;;;1.80;;
25667;SDS011;18003;-33.830;151.202;2023-03-23T10:06:11;3.05;;;1.70;;
25667;SDS011;18003;-33.830;151.202;2023-03-23T10:08:52;2.95;;;1.95;;
25667;SDS011;18003;-33.830;151.202;2023-03-23T10:11:24;2.67;;;1.65;;
25667;SDS011;18003;-33.830;151.202;2023-03-23T10:16:50;2.05;;;1.70;;
25667;SDS011;18003;-33.830;151.202;2023-03-23T10:19:49;1.70;;;1.60;;
25667;SDS011;18003;-33.830;151.202;2023-03-23T10:22:22;2.40;;;1.70;;
25667;SDS011;18003;-33.830;151.202;2023-03-23T10:27:49;1.92;;;1.67;;
25667;SDS011;18003;-33.830;151.202;2023-03-23T10:30:36;4.60;;;1.92;;
25667;SDS011;18003;-33.830;151.202;2023-03-23T10:39:21;2.22;;;1.70;;
25667;SDS011;18003;-33.830;151.202;2023-03-23T10:41:53;2.90;;;2.42;;
25667;SDS011;18003;-33.830;151.202;2023-03-23T10:44:24;2.10;;;1.72;;
25667;SDS011;18003;-33.830;151.202;2023-03-23T10:47:02;3.62;;;1.85;;
25667;SDS011;18003;-33.830;151.202;2023-03-23T10:57:46;1.95;;;1.70;;
25667;SDS011;18003;-33.830;151.202;2023-03-23T11:02:56;1.82;;;1.60;;
25667;SDS011;18003;-33.830;151.202;2023-03-23T11:05:34;2.70;;;1.87;;
25667;SDS011;18003;-33.830;151.202;2023-03-23T11:08:13;3.08;;;1.57;;
25667;SDS011;18003;-33.830;151.202;2023-03-23T11:13:23;2.50;;;1.90;;
25667;SDS011;18003;-33.830;151.202;2023-03-23T11:15:57;2.80;;;1.80;;
25667;SDS011;18003;-33.830;151.202;2023-03-23T11:18:38;3.12;;;1.75;;
25667;SDS011;18003;-33.830;151.202;2023-03-23T11:21:07;2.58;;;2.08;;
25667;SDS011;18003;-33.830;151.202;2023-03-23T11:23:42;4.15;;;1.90;;
25667;SDS011;18003;-33.830;151.202;2023-03-23T11:26:14;3.65;;;1.98;;
25667;SDS011;18003;-33.830;151.202;2023-03-23T11:28:56;3.10;;;1.90;;
25667;SDS011;18003;-33.830;151.202;2023-03-23T11:31:36;2.87;;;1.80;;
25667;SDS011;18003;-33.830;151.202;2023-03-23T11:34:13;2.87;;;1.80;;
25667;SDS011;18003;-33.830;151.202;2023-03-23T11:36:48;3.08;;;1.75;;
25667;SDS011;18003;-33.830;151.202;2023-03-23T11:39:27;4.05;;;1.90;;
25667;SDS011;18003;-33.830;151.202;2023-03-23T11:41:59;3.12;;;2.00;;
25667;SDS011;18003;-33.830;151.202;2023-03-23T11:49:52;3.72;;;1.67;;
25667;SDS011;18003;-33.830;151.202;2023-03-23T11:52:41;5.10;;;2.05;;
25667;SDS011;18003;-33.830;151.202;2023-03-23T11:55:32;3.58;;;1.95;;
25667;SDS011;18003;-33.830;151.202;2023-03-23T11:58:15;4.40;;;2.00;;
25667;SDS011;18003;-33.830;151.202;2023-03-23T12:03:24;3.20;;;2.00;;
25667;SDS011;18003;-33.830;151.202;2023-03-23T12:06:17;2.58;;;2.08;;
25667;SDS011;18003;-33.830;151.202;2023-03-23T12:08:52;3.62;;;2.20;;
25667;SDS011;18003;-33.830;151.202;2023-03-23T12:19:37;2.75;;;2.15;;
25667;SDS011;18003;-33.830;151.202;2023-03-23T12:22:16;4.37;;;2.20;;
25667;SDS011;18003;-33.830;151.202;2023-03-23T12:25:13;3.17;;;2.27;;
25667;SDS011;18003;-33.830;151.202;2023-03-23T12:30:58;3.10;;;2.50;;
25667;SDS011;18003;-33.830;151.202;2023-03-23T12:36:30;4.20;;;2.62;;
25667;SDS011;18003;-33.830;151.202;2023-03-23T12:39:25;5.25;;;2.70;;
25667;SDS011;18003;-33.830;151.202;2023-03-23T12:42:12;2.92;;;2.30;;
25667;SDS011;18003;-33.830;151.202;2023-03-23T12:45:14;2.83;;;2.52;;
25667;SDS011;18003;-33.830;151.202;2023-03-23T12:58:08;2.50;;;2.30;;
25667;SDS011;18003;-33.830;151.202;2023-03-23T13:03:42;2.20;;;2.00;;
25667;SDS011;18003;-33.830;151.202;2023-03-23T13:08:59;3.40;;;1.82;;
25667;SDS011;18003;-33.830;151.202;2023-03-23T13:11:45;3.72;;;1.90;;
25667;SDS011;18003;-33.830;151.202;2023-03-23T13:14:29;4.28;;;2.30;;
25667;SDS011;18003;-33.830;151.202;2023-03-23T13:22:54;4.80;;;2.10;;
25667;SDS011;18003;-33.830;151.202;2023-03-23T13:24:50;2.85;;;2.27;;
25667;SDS011;18003;-33.830;151.202;2023-03-23T13:27:22;3.25;;;2.02;;
25667;SDS011;18003;-33.830;151.202;2023-03-23T13:29:50;2.30;;;2.08;;
25667;SDS011;18003;-33.830;151.202;2023-03-23T13:32:20;2.10;;;1.90;;
25667;SDS011;18003;-33.830;151.202;2023-03-23T13:34:51;3.62;;;1.95;;
25667;SDS011;18003;-33.830;151.202;2023-03-23T13:37:22;4.37;;;2.20;;
25667;SDS011;18003;-33.830;151.202;2023-03-23T13:42:28;5.08;;;2.10;;
25667;SDS011;18003;-33.830;151.202;2023-03-23T13:47:39;2.92;;;2.00;;
25667;SDS011;18003;-33.830;151.202;2023-03-23T13:50:12;5.45;;;2.00;;
25667;SDS011;18003;-33.830;151.202;2023-03-23T13:52:49;2.62;;;2.00;;
25667;SDS011;18003;-33.830;151.202;2023-03-23T13:58:10;4.10;;;2.05;;
25667;SDS011;18003;-33.830;151.202;2023-03-23T14:00:47;4.42;;;2.45;;
25667;SDS011;18003;-33.830;151.202;2023-03-23T14:03:18;3.25;;;2.00;;
25667;SDS011;18003;-33.830;151.202;2023-03-23T14:11:01;3.25;;;2.10;;
25667;SDS011;18003;-33.830;151.202;2023-03-23T14:16:23;4.55;;;2.10;;
25667;SDS011;18003;-33.830;151.202;2023-03-23T14:18:55;2.58;;;2.00;;
25667;SDS011;18003;-33.830;151.202;2023-03-23T14:23:55;2.87;;;2.10;;
25667;SDS011;18003;-33.830;151.202;2023-03-23T14:26:32;3.70;;;2.17;;
25667;SDS011;18003;-33.830;151.202;2023-03-23T14:29:03;2.58;;;2.15;;
25667;SDS011;18003;-33.830;151.202;2023-03-23T14:31:35;3.90;;;2.30;;
25667;SDS011;18003;-33.830;151.202;2023-03-23T14:34:10;2.80;;;2.15;;
25667;SDS011;18003;-33.830;151.202;2023-03-23T14:36:45;4.00;;;2.33;;
25667;SDS011;18003;-33.830;151.202;2023-03-23T14:41:50;5.22;;;2.30;;
25667;SDS011;18003;-33.830;151.202;2023-03-23T14:44:32;4.97;;;2.30;;
25667;SDS011;18003;-33.830;151.202;2023-03-23T14:47:06;4.25;;;2.40;;
25667;SDS011;18003;-33.830;151.202;2023-03-23T14:49:42;3.08;;;2.22;;
25667;SDS011;18003;-33.830;151.202;2023-03-23T14:52:16;5.45;;;2.30;;
25667;SDS011;18003;-33.830;151.202;2023-03-23T14:54:46;5.28;;;2.02;;
25667;SDS011;18003;-33.830;151.202;2023-03-23T14:57:17;2.90;;;2.20;;
25667;SDS011;18003;-33.830;151.202;2023-03-23T14:59:48;3.40;;;2.05;;
25667;SDS011;18003;-33.830;151.202;2023-03-23T15:02:27;2.75;;;2.20;;
25667;SDS011;18003;-33.830;151.202;2023-03-23T15:05:05;3.05;;;2.00;;
25667;SDS011;18003;-33.830;151.202;2023-03-23T15:07:37;6.60;;;2.15;;
25667;SDS011;18003;-33.830;151.202;2023-03-23T15:10:08;3.27;;;2.10;;
25667;SDS011;18003;-33.830;151.202;2023-03-23T15:12:40;2.08;;;1.80;;
25667;SDS011;18003;-33.830;151.202;2023-03-23T15:15:24;4.15;;;2.17;;
25667;SDS011;18003;-33.830;151.202;2023-03-23T15:17:50;3.37;;;2.35;;
25667;SDS011;18003;-33.830;151.202;2023-03-23T15:20:27;2.77;;;2.08;;
25667;SDS011;18003;-33.830;151.202;2023-03-23T15:23:08;2.70;;;2.30;;
25667;SDS011;18003;-33.830;151.202;2023-03-23T15:25:38;3.00;;;2.30;;
25667;SDS011;18003;-33.830;151.202;2023-03-23T15:28:19;3.15;;;2.55;;
25667;SDS011;18003;-33.830;151.202;2023-03-23T15:31:03;3.35;;;2.40;;
25667;SDS011;18003;-33.830;151.202;2023-03-23T15:33:34;5.40;;;2.70;;
25667;SDS011;18003;-33.830;151.202;2023-03-23T15:36:06;4.67;;;2.75;;
25667;SDS011;18003;-33.830;151.202;2023-03-23T15:38:37;4.55;;;3.10;;
25667;SDS011;18003;-33.830;151.202;2023-03-23T15:43:49;4.90;;;3.40;;
25667;SDS011;18003;-33.830;151.202;2023-03-23T15:46:21;3.40;;;3.10;;
25667;SDS011;18003;-33.830;151.202;2023-03-23T15:51:26;4.35;;;3.35;;
25667;SDS011;18003;-33.830;151.202;2023-03-23T15:53:57;6.20;;;3.27;;
25667;SDS011;18003;-33.830;151.202;2023-03-23T15:56:27;4.85;;;3.40;;
25667;SDS011;18003;-33.830;151.202;2023-03-23T15:58:57;6.40;;;3.80;;
25667;SDS011;18003;-33.830;151.202;2023-03-23T16:01:27;6.08;;;3.42;;
25667;SDS011;18003;-33.830;151.202;2023-03-23T16:03:59;3.87;;;3.27;;
25667;SDS011;18003;-33.830;151.202;2023-03-23T16:06:33;4.15;;;3.52;;
25667;SDS011;18003;-33.830;151.202;2023-03-23T16:09:04;5.03;;;3.25;;
25667;SDS011;18003;-33.830;151.202;2023-03-23T16:11:35;5.40;;;3.77;;
25667;SDS011;18003;-33.830;151.202;2023-03-23T16:14:05;5.37;;;3.35;;
25667;SDS011;18003;-33.830;151.202;2023-03-23T16:16:41;4.22;;;3.50;;
25667;SDS011;18003;-33.830;151.202;2023-03-23T16:19:13;4.45;;;3.90;;
25667;SDS011;18003;-33.830;151.202;2023-03-23T16:21:43;3.77;;;3.33;;
25667;SDS011;18003;-33.830;151.202;2023-03-23T16:24:13;9.38;;;3.92;;
25667;SDS011;18003;-33.830;151.202;2023-03-23T16:26:43;4.72;;;3.30;;
25667;SDS011;18003;-33.830;151.202;2023-03-23T16:29:14;5.20;;;3.37;;
25667;SDS011;18003;-33.830;151.202;2023-03-23T16:31:44;4.15;;;3.55;;
25667;SDS011;18003;-33.830;151.202;2023-03-23T16:34:14;4.87;;;3.25;;
25667;SDS011;18003;-33.830;151.202;2023-03-23T16:36:44;5.62;;;3.80;;
25667;SDS011;18003;-33.830;151.202;2023-03-23T16:39:14;5.92;;;3.60;;
25667;SDS011;18003;-33.830;151.202;2023-03-23T16:41:44;6.97;;;3.35;;